Time;durP1;ratioP1;P1;durP2;ratioP2;P2;SDS_P1;SDS_P2;PMS_P1;PMS_P2;Temp;Humidity;BMP_temperature;BMP_pressure;BME280_temperature;BME280_humidity;BME280_pressure;Samples;Min_cycle;Max_cycle;Signal;HPM_P1;HPM_P2
2022/05/31 00:01:49;;;;;;;;;;;9.20;99.90;;;;;;5060412;28;19995;-75
2022/05/31 00:04:15;;;;;;;;;;;9.10;99.90;;;;;;5059112;28;19920;-77
2022/05/31 00:06:41;;;;;;;;;;;9.10;99.90;;;;;;5055843;28;20015;-75
2022/05/31 00:09:07;;;;;;;;;;;9.00;99.90;;;;;;5057523;28;19999;-75
2022/05/31 00:11:33;;;;;;;;;;;9.00;99.90;;;;;;5057336;28;19916;-75
2022/05/31 00:13:59;;;;;;;;;;;8.90;99.90;;;;;;5057731;28;20283;-75
2022/05/31 00:16:24;;;;;;;;;;;9.00;99.90;;;;;;5063779;28;19923;-75
2022/05/31 00:18:50;;;;;;;;;;;9.00;99.90;;;;;;5068152;28;20307;-76
2022/05/31 00:21:16;;;;;;;;;;;9.00;99.90;;;;;;5055119;28;20019;-76
2022/05/31 00:23:42;;;;;;;;;;;9.00;99.90;;;;;;5054399;28;20347;-75
2022/05/31 00:26:08;;;;;;;;;;;8.90;99.90;;;;;;5053961;28;19920;-75
2022/05/31 00:28:33;;;;;;;;;;;8.90;99.90;;;;;;5056497;28;19913;-75
2022/05/31 00:30:59;;;;;;;;;;;8.90;99.90;;;;;;5036618;28;19921;-75
2022/05/31 00:33:26;;;;;;;;;;;8.80;99.90;;;;;;5055477;28;19962;-74
2022/05/31 00:35:53;;;;;;;;;;;8.90;99.90;;;;;;5071412;28;19917;-75
2022/05/31 00:38:19;;;;;;;;;;;8.90;99.90;;;;;;5051930;28;19921;-74
2022/05/31 00:40:45;;;;;;;;;;;8.80;99.90;;;;;;5050737;28;19913;-75
2022/05/31 00:43:13;;;;;;;;;;;8.80;99.90;;;;;;5050842;28;19913;-75
2022/05/31 00:45:38;;;;;;;;;;;8.80;99.90;;;;;;5070877;28;19948;-75
2022/05/31 00:48:06;;;;;;;;;;;8.80;99.90;;;;;;5060553;28;20037;-75
2022/05/31 00:50:34;;;;;;;;;;;8.80;99.90;;;;;;5055774;28;19967;-75
2022/05/31 00:53:02;;;;;;;;;;;8.80;99.90;;;;;;5049855;28;19963;-76
2022/05/31 00:55:30;;;;;;;;;;;8.80;99.90;;;;;;5050995;28;19960;-75
2022/05/31 00:58:03;;;;;;;;;;;8.70;99.90;;;;;;5051298;28;20004;-75
2022/05/31 01:00:29;;;;;;;;;;;8.70;99.90;;;;;;5050596;28;19990;-75
2022/05/31 01:02:56;;;;;;;;;;;8.70;99.90;;;;;;5060205;28;19931;-75
2022/05/31 01:05:24;;;;;;;;;;;8.60;99.90;;;;;;5051391;28;19916;-75
2022/05/31 01:07:49;;;;;;;;;;;8.60;99.90;;;;;;5049548;28;19971;-75
2022/05/31 01:10:15;;;;;;;;;;;8.60;99.90;;;;;;5056480;28;19916;-76
2022/05/31 01:12:42;;;;;;;;;;;8.50;99.90;;;;;;5053659;28;20321;-76
2022/05/31 01:15:09;;;;;;;;;;;8.50;99.90;;;;;;5041557;28;20376;-74
2022/05/31 01:17:35;;;;;;;;;;;8.50;99.90;;;;;;5054566;28;20219;-75
2022/05/31 01:20:06;;;;;;;;;;;8.40;99.90;;;;;;5048182;28;19943;-75
2022/05/31 01:22:43;;;;;;;;;;;8.40;99.90;;;;;;5049174;28;19959;-76
2022/05/31 01:25:21;;;;;;;;;;;8.50;99.90;;;;;;5054802;28;19943;-76
2022/05/31 01:28:09;;;;;;;;;;;8.50;99.90;;;;;;5048388;28;20223;-76
2022/05/31 01:30:45;;;;;;;;;;;8.50;99.90;;;;;;5053589;28;19913;-75
2022/05/31 01:33:28;;;;;;;;;;;8.50;99.90;;;;;;5054140;28;19912;-75
2022/05/31 01:35:58;;;;;;;;;;;8.50;99.90;;;;;;5052961;28;20017;-75
2022/05/31 01:38:27;;;;;;;;;;;8.50;99.90;;;;;;5050112;28;19924;-75
2022/05/31 01:40:56;;;;;;;;;;;8.50;99.90;;;;;;5046075;28;19913;-75
2022/05/31 01:43:22;;;;;;;;;;;8.50;99.90;;;;;;5055212;28;19934;-75
2022/05/31 01:45:55;;;;;;;;;;;8.50;99.90;;;;;;5052890;28;20283;-75
2022/05/31 01:48:22;;;;;;;;;;;8.50;99.90;;;;;;5058613;28;19924;-76
2022/05/31 01:50:48;;;;;;;;;;;8.50;99.90;;;;;;5050888;28;19964;-76
2022/05/31 01:53:15;;;;;;;;;;;8.50;99.90;;;;;;5065101;28;19963;-75
2022/05/31 01:55:43;;;;;;;;;;;8.50;99.90;;;;;;5052152;28;19971;-75
2022/05/31 01:58:13;;;;;;;;;;;8.60;99.90;;;;;;5051231;28;19938;-75
2022/05/31 02:00:39;;;;;;;;;;;8.50;99.90;;;;;;5056067;28;19921;-76
2022/05/31 02:03:06;;;;;;;;;;;8.60;99.90;;;;;;5042499;28;20208;-75
2022/05/31 02:05:32;;;;;;;;;;;8.60;99.90;;;;;;5056693;28;19919;-75
2022/05/31 02:07:59;;;;;;;;;;;8.50;99.90;;;;;;5052291;28;19917;-75
2022/05/31 02:10:25;;;;;;;;;;;8.50;99.90;;;;;;5057029;28;20016;-75
2022/05/31 02:12:50;;;;;;;;;;;8.50;99.90;;;;;;5056502;28;20066;-75
2022/05/31 02:15:17;;;;;;;;;;;8.50;99.90;;;;;;5051950;28;19974;-75
2022/05/31 02:17:43;;;;;;;;;;;8.60;99.90;;;;;;5053311;28;19921;-75
2022/05/31 02:20:09;;;;;;;;;;;8.50;99.90;;;;;;5054312;28;19928;-76
2022/05/31 02:22:34;;;;;;;;;;;8.50;99.90;;;;;;5055425;28;19978;-75
2022/05/31 02:25:00;;;;;;;;;;;8.60;99.90;;;;;;5054955;28;19920;-75
2022/05/31 02:27:26;;;;;;;;;;;8.50;99.90;;;;;;5050683;28;19913;-75
2022/05/31 02:29:51;;;;;;;;;;;8.50;99.90;;;;;;5060966;28;19913;-75
2022/05/31 02:32:17;;;;;;;;;;;8.50;99.90;;;;;;5049654;28;19913;-75
2022/05/31 02:34:44;;;;;;;;;;;8.50;99.90;;;;;;5047379;28;19917;-75
2022/05/31 02:37:10;;;;;;;;;;;8.50;99.90;;;;;;5046288;28;19959;-75
2022/05/31 02:39:36;;;;;;;;;;;8.50;99.90;;;;;;5045779;28;19997;-76
2022/05/31 02:42:03;;;;;;;;;;;8.40;99.90;;;;;;5046207;28;19952;-76
2022/05/31 02:44:28;;;;;;;;;;;8.40;99.90;;;;;;5044411;28;20261;-76
2022/05/31 02:46:54;;;;;;;;;;;8.30;99.90;;;;;;5047589;28;20033;-76
2022/05/31 02:49:20;;;;;;;;;;;8.30;99.90;;;;;;5047371;28;19923;-75
2022/05/31 02:51:46;;;;;;;;;;;8.30;99.90;;;;;;5047741;28;19921;-76
2022/05/31 02:54:13;;;;;;;;;;;8.20;99.90;;;;;;5044182;28;19924;-75
2022/05/31 02:56:38;;;;;;;;;;;8.20;99.90;;;;;;5044940;28;19917;-75
2022/05/31 02:59:05;;;;;;;;;;;8.20;99.90;;;;;;5043713;28;19939;-76
2022/05/31 03:01:35;;;;;;;;;;;8.30;99.90;;;;;;5046432;28;20295;-75
2022/05/31 03:04:01;;;;;;;;;;;8.30;99.90;;;;;;5047040;28;19912;-75
2022/05/31 03:06:27;;;;;;;;;;;8.40;99.90;;;;;;5047379;28;19913;-75
2022/05/31 03:08:53;;;;;;;;;;;8.30;99.90;;;;;;5045436;28;19963;-75
2022/05/31 03:11:25;;;;;;;;;;;8.40;99.90;;;;;;5047267;28;19960;-75
2022/05/31 03:13:54;;;;;;;;;;;8.30;99.90;;;;;;5043879;28;19944;-75
2022/05/31 03:16:20;;;;;;;;;;;8.40;99.90;;;;;;5045605;28;19925;-75
2022/05/31 03:18:49;;;;;;;;;;;8.50;99.90;;;;;;5042464;28;19913;-75
2022/05/31 03:21:20;;;;;;;;;;;8.40;99.90;;;;;;5044934;28;19983;-79
2022/05/31 03:23:47;;;;;;;;;;;8.50;99.90;;;;;;5044538;28;20299;-75
2022/05/31 03:26:15;;;;;;;;;;;8.50;99.90;;;;;;5045573;28;20025;-75
2022/05/31 03:28:41;;;;;;;;;;;8.50;99.90;;;;;;5043971;28;19967;-75
2022/05/31 03:31:08;;;;;;;;;;;8.50;99.90;;;;;;5063110;28;19924;-76
2022/05/31 03:33:34;;;;;;;;;;;8.50;99.90;;;;;;5047294;28;19966;-76
2022/05/31 03:36:00;;;;;;;;;;;8.50;99.90;;;;;;5043079;28;19917;-76
2022/05/31 03:38:26;;;;;;;;;;;8.50;99.90;;;;;;5049325;28;19916;-76
2022/05/31 03:40:58;;;;;;;;;;;8.50;99.90;;;;;;5047758;28;19913;-75
2022/05/31 03:43:29;;;;;;;;;;;8.50;99.90;;;;;;5040974;28;20011;-76
2022/05/31 03:45:54;;;;;;;;;;;8.50;99.90;;;;;;5051473;28;20308;-75
2022/05/31 03:48:20;;;;;;;;;;;8.50;99.90;;;;;;5049786;28;19924;-74
2022/05/31 03:50:56;;;;;;;;;;;8.50;99.90;;;;;;5048871;28;19932;-75
2022/05/31 03:53:21;;;;;;;;;;;8.60;99.90;;;;;;5046633;28;19933;-75
2022/05/31 03:55:47;;;;;;;;;;;8.60;99.90;;;;;;5046094;28;19921;-75
2022/05/31 03:58:12;;;;;;;;;;;8.60;99.90;;;;;;5037738;28;19924;-76
2022/05/31 04:00:38;;;;;;;;;;;8.60;99.90;;;;;;5051533;28;19921;-75
2022/05/31 04:03:04;;;;;;;;;;;8.80;99.90;;;;;;5034205;28;20027;-74
2022/05/31 04:05:30;;;;;;;;;;;8.80;99.90;;;;;;5043783;28;20211;-75
2022/05/31 04:08:00;;;;;;;;;;;8.80;99.90;;;;;;5053162;28;20054;-75
2022/05/31 04:10:29;;;;;;;;;;;8.80;99.90;;;;;;5052190;28;19920;-75
2022/05/31 04:12:54;;;;;;;;;;;8.90;99.90;;;;;;5053008;28;20329;-75
2022/05/31 04:15:20;;;;;;;;;;;8.90;99.90;;;;;;5047951;28;19912;-75
2022/05/31 04:17:46;;;;;;;;;;;9.00;99.90;;;;;;5046975;28;19913;-75
2022/05/31 04:20:12;;;;;;;;;;;9.00;99.90;;;;;;5052666;28;19913;-75
2022/05/31 04:22:37;;;;;;;;;;;9.10;99.90;;;;;;5056933;28;19913;-75
2022/05/31 04:25:03;;;;;;;;;;;9.10;99.90;;;;;;5055822;28;19935;-75
2022/05/31 04:27:29;;;;;;;;;;;9.10;99.90;;;;;;5049103;28;19929;-75
2022/05/31 04:29:55;;;;;;;;;;;9.20;99.90;;;;;;5054089;28;19921;-75
2022/05/31 04:32:21;;;;;;;;;;;9.20;99.90;;;;;;5050435;28;20273;-75
2022/05/31 04:34:47;;;;;;;;;;;9.20;99.90;;;;;;5050450;28;19921;-75
2022/05/31 04:37:13;;;;;;;;;;;9.30;99.90;;;;;;5051945;28;20311;-76
2022/05/31 04:39:39;;;;;;;;;;;9.30;99.90;;;;;;5054241;28;19924;-75
2022/05/31 04:42:04;;;;;;;;;;;9.30;99.90;;;;;;5054398;28;19978;-76
2022/05/31 04:44:30;;;;;;;;;;;9.30;99.90;;;;;;5058563;28;19921;-75
2022/05/31 04:46:56;;;;;;;;;;;9.40;99.90;;;;;;5048377;28;19921;-76
2022/05/31 04:49:21;;;;;;;;;;;9.40;99.90;;;;;;5053805;28;20327;-74
2022/05/31 04:51:47;;;;;;;;;;;9.50;99.90;;;;;;5054461;28;19913;-75
2022/05/31 04:54:13;;;;;;;;;;;9.60;99.90;;;;;;5038220;28;19920;-75
2022/05/31 04:56:39;;;;;;;;;;;9.70;99.90;;;;;;5052470;28;19955;-75
2022/05/31 04:59:05;;;;;;;;;;;9.80;99.90;;;;;;5051761;28;19959;-75
2022/05/31 05:01:33;;;;;;;;;;;9.80;99.90;;;;;;5044648;28;19917;-75
2022/05/31 05:03:59;;;;;;;;;;;9.90;99.90;;;;;;5050480;28;19998;-75
2022/05/31 05:06:24;;;;;;;;;;;10.00;99.90;;;;;;5052741;28;19994;-75
2022/05/31 05:08:50;;;;;;;;;;;10.10;99.90;;;;;;5054187;28;19924;-74
2022/05/31 05:11:17;;;;;;;;;;;10.10;99.90;;;;;;5050958;28;19909;-75
2022/05/31 05:13:43;;;;;;;;;;;10.20;99.90;;;;;;5054038;28;20318;-75
2022/05/31 05:16:09;;;;;;;;;;;10.30;99.90;;;;;;5050182;28;20046;-75
2022/05/31 05:18:37;;;;;;;;;;;10.30;99.90;;;;;;5050211;28;19913;-76
2022/05/31 05:21:04;;;;;;;;;;;10.40;99.90;;;;;;5054979;28;19913;-75
2022/05/31 05:23:30;;;;;;;;;;;10.50;99.90;;;;;;5050207;28;19947;-75
2022/05/31 05:25:56;;;;;;;;;;;10.50;99.90;;;;;;5053613;28;19925;-75
2022/05/31 05:31:06;;;;;;;;;;;10.60;99.90;;;;;;5049132;28;19967;-75
2022/05/31 05:33:32;;;;;;;;;;;10.60;99.90;;;;;;5044556;28;19913;-75
2022/05/31 05:35:58;;;;;;;;;;;10.70;99.90;;;;;;5053268;28;19913;-75
2022/05/31 05:38:24;;;;;;;;;;;10.70;99.90;;;;;;5054519;28;19923;-75
2022/05/31 05:40:49;;;;;;;;;;;10.80;99.90;;;;;;5049038;28;19960;-75
2022/05/31 05:43:16;;;;;;;;;;;10.80;99.90;;;;;;5053941;28;19960;-75
2022/05/31 05:45:41;;;;;;;;;;;10.80;99.90;;;;;;5046794;28;19913;-75
2022/05/31 05:48:07;;;;;;;;;;;10.90;99.90;;;;;;5051261;28;19924;-74
2022/05/31 05:50:34;;;;;;;;;;;11.00;99.90;;;;;;5052052;28;19959;-76
2022/05/31 05:53:01;;;;;;;;;;;11.00;99.90;;;;;;5050860;28;19924;-75
2022/05/31 05:55:27;;;;;;;;;;;11.10;99.90;;;;;;5050781;28;19920;-75
2022/05/31 05:57:54;;;;;;;;;;;11.10;99.90;;;;;;5047436;28;20296;-75
2022/05/31 06:00:21;;;;;;;;;;;11.20;99.90;;;;;;5066866;28;20345;-75
2022/05/31 06:02:50;;;;;;;;;;;11.30;99.90;;;;;;5051717;28;19965;-75
2022/05/31 06:05:26;;;;;;;;;;;11.30;99.90;;;;;;5045831;28;19913;-74
2022/05/31 06:08:13;;;;;;;;;;;11.40;99.90;;;;;;5068969;28;20006;-74
2022/05/31 06:10:41;;;;;;;;;;;11.40;99.90;;;;;;5063246;28;19927;-75
2022/05/31 06:13:27;;;;;;;;;;;11.60;99.90;;;;;;5043640;28;19917;-76
2022/05/31 06:15:54;;;;;;;;;;;11.70;99.90;;;;;;5047264;28;19928;-75
2022/05/31 06:18:25;;;;;;;;;;;11.80;99.90;;;;;;5046579;28;19916;-75
2022/05/31 06:20:53;;;;;;;;;;;11.90;99.90;;;;;;5031425;28;19917;-74
2022/05/31 06:23:19;;;;;;;;;;;12.00;99.90;;;;;;5045818;28;20011;-74
2022/05/31 06:25:45;;;;;;;;;;;12.10;99.90;;;;;;5046763;28;20019;-75
2022/05/31 06:28:10;;;;;;;;;;;12.10;99.90;;;;;;5045877;28;19917;-75
2022/05/31 06:30:37;;;;;;;;;;;12.20;99.90;;;;;;5044017;28;19952;-75
2022/05/31 06:33:04;;;;;;;;;;;12.30;99.90;;;;;;5049040;28;19978;-75
2022/05/31 06:35:29;;;;;;;;;;;12.40;99.90;;;;;;5047044;28;19921;-75
2022/05/31 06:37:55;;;;;;;;;;;12.50;99.90;;;;;;5046302;28;19924;-75
2022/05/31 06:40:20;;;;;;;;;;;12.70;99.90;;;;;;5027127;28;19921;-75
2022/05/31 06:42:46;;;;;;;;;;;12.80;99.90;;;;;;5048025;28;20004;-75
2022/05/31 06:45:11;;;;;;;;;;;12.90;99.90;;;;;;5046159;28;19920;-75
2022/05/31 06:47:40;;;;;;;;;;;13.20;99.90;;;;;;5051938;28;20172;-74
2022/05/31 06:50:06;;;;;;;;;;;13.40;99.90;;;;;;5049025;28;19940;-76
2022/05/31 06:58:20;;;;;;;;;;;14.20;99.90;;;;;;4990862;28;19921;-75
2022/05/31 07:00:46;;;;;;;;;;;14.40;99.90;;;;;;5025446;28;19923;-76
2022/05/31 07:03:12;;;;;;;;;;;14.60;99.90;;;;;;5046634;28;19912;-75
2022/05/31 07:05:38;;;;;;;;;;;14.90;99.90;;;;;;5045455;28;19948;-76
2022/05/31 07:08:04;;;;;;;;;;;15.10;99.90;;;;;;5044096;28;19924;-76
2022/05/31 07:10:30;;;;;;;;;;;15.20;99.90;;;;;;5052524;28;19919;-77
2022/05/31 07:12:55;;;;;;;;;;;15.30;99.90;;;;;;5053686;28;20000;-77
2022/05/31 07:15:21;;;;;;;;;;;15.40;99.90;;;;;;5051535;28;19967;-75
2022/05/31 07:17:46;;;;;;;;;;;15.40;99.90;;;;;;5048879;28;19913;-76
2022/05/31 07:20:12;;;;;;;;;;;15.30;99.90;;;;;;5048212;28;19913;-76
2022/05/31 07:22:38;;;;;;;;;;;15.30;99.90;;;;;;5052424;28;20273;-76
2022/05/31 07:25:04;;;;;;;;;;;15.50;99.90;;;;;;5048816;28;19949;-78
2022/05/31 07:27:30;;;;;;;;;;;15.50;99.90;;;;;;5050118;28;20250;-76
2022/05/31 07:29:55;;;;;;;;;;;15.50;99.90;;;;;;5053835;28;19921;-76
2022/05/31 07:32:21;;;;;;;;;;;15.60;99.90;;;;;;5044479;28;20219;-76
2022/05/31 07:34:48;;;;;;;;;;;15.60;99.90;;;;;;5047687;28;19913;-76
2022/05/31 07:37:14;;;;;;;;;;;15.60;99.90;;;;;;5045020;28;19944;-76
2022/05/31 07:39:40;;;;;;;;;;;15.60;99.90;;;;;;5050187;28;20304;-75
2022/05/31 07:42:06;;;;;;;;;;;15.70;99.90;;;;;;5047244;28;19920;-76
2022/05/31 07:44:32;;;;;;;;;;;15.80;99.90;;;;;;5044591;28;19919;-75
2022/05/31 07:46:59;;;;;;;;;;;15.80;99.90;;;;;;5043820;28;20026;-76
2022/05/31 07:49:24;;;;;;;;;;;15.90;99.90;;;;;;5050857;28;20287;-76
2022/05/31 07:51:50;;;;;;;;;;;15.90;99.90;;;;;;5042398;28;19995;-76
2022/05/31 07:54:16;;;;;;;;;;;15.90;99.90;;;;;;5046487;28;19924;-76
2022/05/31 07:56:41;;;;;;;;;;;16.00;99.90;;;;;;5049686;28;20219;-76
2022/05/31 07:59:07;;;;;;;;;;;16.20;99.90;;;;;;5031803;28;19959;-76
2022/05/31 08:01:33;;;;;;;;;;;16.40;99.90;;;;;;5048218;28;19913;-76
2022/05/31 08:03:59;;;;;;;;;;;17.00;99.90;;;;;;5047665;28;21500;-76
2022/05/31 08:06:28;;;;;;;;;;;17.60;99.90;;;;;;5047117;28;19932;-77
2022/05/31 08:08:54;;;;;;;;;;;18.20;99.90;;;;;;5057369;28;19951;-77
2022/05/31 08:11:21;;;;;;;;;;;18.40;98.90;;;;;;5043449;28;20283;-78
2022/05/31 08:13:47;;;;;;;;;;;18.40;98.90;;;;;;5044847;28;19995;-77
2022/05/31 08:16:13;;;;;;;;;;;18.40;99.90;;;;;;5049213;28;19927;-77
2022/05/31 08:18:39;;;;;;;;;;;18.50;99.30;;;;;;5054236;28;19921;-77
2022/05/31 08:21:06;;;;;;;;;;;18.30;99.90;;;;;;5055043;28;19917;-77
2022/05/31 08:23:32;;;;;;;;;;;18.30;99.90;;;;;;5050681;28;19921;-77
2022/05/31 08:25:58;;;;;;;;;;;18.50;98.70;;;;;;5051516;28;20319;-77
2022/05/31 08:28:24;;;;;;;;;;;18.70;99.50;;;;;;5045462;28;20346;-77
2022/05/31 08:30:52;;;;;;;;;;;18.70;99.90;;;;;;5048212;28;19913;-77
2022/05/31 08:33:18;;;;;;;;;;;18.80;98.50;;;;;;5043890;28;19913;-78
2022/05/31 08:35:43;;;;;;;;;;;19.20;99.90;;;;;;5055126;28;19921;-78
2022/05/31 08:38:09;;;;;;;;;;;19.70;99.20;;;;;;5053876;28;19921;-79
2022/05/31 08:40:51;;;;;;;;;;;20.10;96.90;;;;;;5052712;28;20001;-78
2022/05/31 08:43:20;;;;;;;;;;;20.40;96.00;;;;;;5052963;28;19916;-78
2022/05/31 08:45:49;;;;;;;;;;;21.00;96.70;;;;;;5045504;28;19919;-78
2022/05/31 08:48:17;;;;;;;;;;;21.10;96.60;;;;;;5055620;28;19983;-78
2022/05/31 08:56:56;;;;;;;;;;;22.00;94.30;;;;;;5050778;28;19924;-78
2022/05/31 08:59:24;;;;;;;;;;;22.20;91.70;;;;;;5055818;28;19919;-77
2022/05/31 09:01:52;;;;;;;;;;;22.10;90.50;;;;;;5047274;28;19920;-77
2022/05/31 09:04:20;;;;;;;;;;;21.70;92.40;;;;;;5053239;28;19912;-78
2022/05/31 09:06:49;;;;;;;;;;;22.20;91.40;;;;;;5047637;28;20373;-77
2022/05/31 09:09:26;;;;;;;;;;;22.00;90.70;;;;;;5052270;28;19921;-78
2022/05/31 09:11:55;;;;;;;;;;;21.70;93.60;;;;;;5051247;28;20329;-78
2022/05/31 09:14:46;;;;;;;;;;;21.60;92.10;;;;;;5055417;28;20014;-79
2022/05/31 09:17:12;;;;;;;;;;;21.30;91.50;;;;;;5003387;28;20279;-79
2022/05/31 09:19:40;;;;;;;;;;;20.70;90.90;;;;;;5004981;28;20043;-77
2022/05/31 09:22:07;;;;;;;;;;;20.20;91.20;;;;;;5011857;28;19937;-78
2022/05/31 09:24:36;;;;;;;;;;;20.20;92.50;;;;;;4996230;28;20000;-78
2022/05/31 09:27:02;;;;;;;;;;;20.20;93.90;;;;;;5002412;28;19922;-78
2022/05/31 09:29:49;;;;;;;;;;;20.20;93.60;;;;;;5010598;28;19925;-78
2022/05/31 09:32:31;;;;;;;;;;;20.00;93.90;;;;;;5010610;28;20259;-79
2022/05/31 09:35:07;;;;;;;;;;;19.80;94.30;;;;;;5007756;28;19940;-79
2022/05/31 09:37:35;;;;;;;;;;;19.40;93.80;;;;;;4996750;28;19928;-79
2022/05/31 09:40:16;;;;;;;;;;;19.30;94.80;;;;;;5011139;28;19913;-79
2022/05/31 09:42:45;;;;;;;;;;;19.20;95.70;;;;;;5009955;28;19922;-78
2022/05/31 09:45:13;;;;;;;;;;;19.20;95.90;;;;;;5011092;28;19956;-78
2022/05/31 09:47:39;;;;;;;;;;;19.20;95.70;;;;;;5008855;28;19928;-79
2022/05/31 09:50:05;;;;;;;;;;;19.00;95.60;;;;;;5008860;28;19917;-79
2022/05/31 09:52:36;;;;;;;;;;;19.00;94.50;;;;;;5008378;28;19927;-78
2022/05/31 09:58:18;;;;;;;;;;;18.80;93.50;;;;;;5042812;28;19924;-79
2022/05/31 10:01:01;;;;;;;;;;;18.60;92.50;;;;;;5059937;28;19921;-78
2022/05/31 10:03:38;;;;;;;;;;;18.30;94.20;;;;;;5043616;28;20219;-79
2022/05/31 10:06:06;;;;;;;;;;;18.00;96.90;;;;;;5042476;28;19946;-79
2022/05/31 10:08:34;;;;;;;;;;;18.10;97.30;;;;;;5041130;28;20323;-79
2022/05/31 10:11:04;;;;;;;;;;;18.10;96.70;;;;;;5044521;28;19921;-78
2022/05/31 10:13:35;;;;;;;;;;;18.20;94.90;;;;;;5041376;28;19921;-79
2022/05/31 10:16:08;;;;;;;;;;;18.10;95.00;;;;;;5041368;28;20327;-79
2022/05/31 10:18:44;;;;;;;;;;;18.10;95.40;;;;;;5044539;28;20261;-81
2022/05/31 10:21:11;;;;;;;;;;;18.10;95.30;;;;;;5043725;28;19925;-80
2022/05/31 10:23:44;;;;;;;;;;;18.30;94.60;;;;;;5042582;28;19917;-79
2022/05/31 10:26:22;;;;;;;;;;;18.50;95.70;;;;;;5041969;28;19949;-77
2022/05/31 10:29:06;;;;;;;;;;;18.70;94.10;;;;;;5044809;28;19920;-78
2022/05/31 10:31:35;;;;;;;;;;;19.00;96.50;;;;;;5042694;28;19963;-79
2022/05/31 10:34:03;;;;;;;;;;;19.30;93.60;;;;;;5043541;28;20358;-79
2022/05/31 10:36:30;;;;;;;;;;;19.00;95.40;;;;;;5041816;28;19921;-80
2022/05/31 10:39:06;;;;;;;;;;;18.90;95.00;;;;;;5041325;28;19967;-79
2022/05/31 10:41:32;;;;;;;;;;;18.80;94.20;;;;;;5046941;28;20480;-79
2022/05/31 10:44:02;;;;;;;;;;;18.50;94.40;;;;;;5040966;28;19916;-79
2022/05/31 10:46:29;;;;;;;;;;;18.10;94.80;;;;;;5043400;28;19975;-80
2022/05/31 10:48:56;;;;;;;;;;;17.80;98.00;;;;;;5043866;28;19928;-80
2022/05/31 10:51:32;;;;;;;;;;;17.80;95.60;;;;;;5043986;28;19916;-80
2022/05/31 10:54:06;;;;;;;;;;;17.80;95.60;;;;;;5044516;28;19975;-78
2022/05/31 10:56:50;;;;;;;;;;;17.70;96.30;;;;;;5043329;28;19925;-81
2022/05/31 10:59:25;;;;;;;;;;;17.50;95.70;;;;;;5043642;28;20231;-80
2022/05/31 11:01:57;;;;;;;;;;;17.40;95.30;;;;;;5043867;28;20322;-77
2022/05/31 11:04:43;;;;;;;;;;;17.20;94.70;;;;;;5043303;28;19921;-78
2022/05/31 11:07:15;;;;;;;;;;;17.00;95.00;;;;;;5030971;28;19931;-77
2022/05/31 11:12:31;;;;;;;;;;;16.70;99.10;;;;;;5041448;28;19963;-77
2022/05/31 11:15:15;;;;;;;;;;;16.50;96.90;;;;;;5043475;28;19983;-77
2022/05/31 11:17:40;;;;;;;;;;;16.20;97.70;;;;;;5042833;28;19948;-78
2022/05/31 11:20:10;;;;;;;;;;;16.00;99.10;;;;;;5042437;28;20359;-79
2022/05/31 11:22:45;;;;;;;;;;;15.80;99.90;;;;;;5043572;28;20019;-77
2022/05/31 11:25:10;;;;;;;;;;;15.80;99.90;;;;;;5044300;28;20279;-76
2022/05/31 11:27:54;;;;;;;;;;;15.70;99.90;;;;;;5044015;28;19917;-77
2022/05/31 11:30:21;;;;;;;;;;;15.60;99.90;;;;;;5047152;28;20015;-78
2022/05/31 11:33:06;;;;;;;;;;;15.50;99.90;;;;;;5045349;28;19917;-78
2022/05/31 11:35:35;;;;;;;;;;;15.50;99.90;;;;;;5047393;28;19971;-77
2022/05/31 11:38:12;;;;;;;;;;;15.40;99.90;;;;;;5048007;28;19927;-76
2022/05/31 11:40:47;;;;;;;;;;;15.30;99.90;;;;;;5052039;28;20251;-79
2022/05/31 11:43:27;;;;;;;;;;;15.10;99.90;;;;;;5049520;28;19912;-77
2022/05/31 11:46:08;;;;;;;;;;;15.00;99.90;;;;;;5049634;28;19932;-79
2022/05/31 11:48:41;;;;;;;;;;;15.00;99.90;;;;;;5048218;28;19921;-78
2022/05/31 11:51:18;;;;;;;;;;;15.00;99.90;;;;;;5047850;28;19959;-77
2022/05/31 11:53:50;;;;;;;;;;;15.10;99.90;;;;;;5047061;28;20204;-77
2022/05/31 11:56:28;;;;;;;;;;;15.10;99.90;;;;;;5053722;28;19928;-78
2022/05/31 11:59:16;;;;;;;;;;;15.20;99.90;;;;;;5057452;28;19960;-77
2022/05/31 12:01:44;;;;;;;;;;;15.40;99.90;;;;;;5050498;28;19967;-77
2022/05/31 12:04:21;;;;;;;;;;;15.60;99.90;;;;;;5044598;28;20324;-78
2022/05/31 12:07:07;;;;;;;;;;;15.50;99.90;;;;;;5056114;28;19966;-78
2022/05/31 12:09:36;;;;;;;;;;;15.70;99.90;;;;;;5055579;28;19921;-77
2022/05/31 12:12:03;;;;;;;;;;;15.90;99.90;;;;;;5054781;28;19912;-77
2022/05/31 12:14:30;;;;;;;;;;;16.10;99.90;;;;;;5051923;28;19921;-78
2022/05/31 12:16:56;;;;;;;;;;;16.60;98.50;;;;;;5055506;28;19912;-77
2022/05/31 12:19:41;;;;;;;;;;;17.00;98.10;;;;;;5048786;28;19913;-80
2022/05/31 12:22:10;;;;;;;;;;;17.30;99.80;;;;;;5046676;28;19924;-78
2022/05/31 12:24:52;;;;;;;;;;;17.30;99.40;;;;;;5049133;28;20308;-77
2022/05/31 12:27:24;;;;;;;;;;;17.50;99.90;;;;;;5051059;28;20296;-78
2022/05/31 12:29:52;;;;;;;;;;;17.90;99.90;;;;;;5051965;28;19925;-77
2022/05/31 12:32:29;;;;;;;;;;;18.00;99.40;;;;;;5052617;28;20315;-77
2022/05/31 12:34:59;;;;;;;;;;;18.20;99.00;;;;;;5048072;28;20215;-78
2022/05/31 12:37:25;;;;;;;;;;;18.70;98.50;;;;;;5046587;28;19994;-76
2022/05/31 12:40:10;;;;;;;;;;;19.00;97.20;;;;;;5041778;28;19931;-75
2022/05/31 12:42:38;;;;;;;;;;;19.00;95.20;;;;;;5045350;28;19924;-79
2022/05/31 12:45:24;;;;;;;;;;;18.60;96.00;;;;;;5055459;28;19917;-78
2022/05/31 12:47:57;;;;;;;;;;;18.40;97.00;;;;;;5041666;28;19920;-78
2022/05/31 12:50:41;;;;;;;;;;;18.10;97.20;;;;;;5045843;28;19913;-78
2022/05/31 12:55:33;;;;;;;;;;;17.40;96.50;;;;;;5045192;28;19921;-78
2022/05/31 13:00:52;;;;;;;;;;;16.90;97.10;;;;;;5048183;28;19924;-77
2022/05/31 13:03:33;;;;;;;;;;;16.80;97.10;;;;;;5048641;28;19921;-80
2022/05/31 13:06:18;;;;;;;;;;;16.60;96.50;;;;;;5059542;28;19925;-76
2022/05/31 13:08:51;;;;;;;;;;;16.40;98.20;;;;;;5015891;28;19970;-77
2022/05/31 13:20:26;;;;;;;;;;;15.00;99.90;;;;;;5049923;28;20034;-78
2022/05/31 13:23:12;;;;;;;;;;;15.30;99.90;;;;;;5047616;28;19924;-79
2022/05/31 13:25:58;;;;;;;;;;;15.50;99.90;;;;;;5042494;28;19913;-80
2022/05/31 13:28:27;;;;;;;;;;;15.70;99.90;;;;;;5049095;28;19927;-78
2022/05/31 13:30:56;;;;;;;;;;;15.70;99.90;;;;;;5048373;28;19917;-76
2022/05/31 13:33:22;;;;;;;;;;;15.60;99.90;;;;;;5043730;28;19924;-79
2022/05/31 13:36:02;;;;;;;;;;;15.60;99.90;;;;;;5045281;28;20231;-80
2022/05/31 13:38:31;;;;;;;;;;;15.90;99.90;;;;;;5047276;28;19932;-75
2022/05/31 13:40:57;;;;;;;;;;;16.40;99.90;;;;;;5046074;28;19913;-77
2022/05/31 13:43:25;;;;;;;;;;;16.90;99.90;;;;;;5050138;28;19921;-79
2022/05/31 13:45:52;;;;;;;;;;;16.80;99.90;;;;;;5046103;28;19958;-77
2022/05/31 13:48:19;;;;;;;;;;;17.00;99.60;;;;;;5048687;28;19924;-76
2022/05/31 13:50:55;;;;;;;;;;;17.00;99.90;;;;;;5045235;28;19913;-76
2022/05/31 13:53:22;;;;;;;;;;;16.90;99.90;;;;;;5046948;28;19936;-76
2022/05/31 13:55:53;;;;;;;;;;;16.90;99.90;;;;;;5048850;28;20258;-77
2022/05/31 13:58:22;;;;;;;;;;;16.70;97.90;;;;;;5045864;28;19917;-80
2022/05/31 14:00:48;;;;;;;;;;;16.50;98.80;;;;;;5047048;28;20007;-77
2022/05/31 14:03:17;;;;;;;;;;;16.40;98.60;;;;;;5048082;28;19920;-77
2022/05/31 14:05:51;;;;;;;;;;;16.30;99.90;;;;;;5050254;28;19913;-77
2022/05/31 14:08:49;;;;;;;;;;;16.20;99.90;;;;;;5046833;28;19917;-77
2022/05/31 14:11:17;;;;;;;;;;;16.20;99.90;;;;;;5011684;28;20232;-78
2022/05/31 14:13:45;;;;;;;;;;;16.00;99.90;;;;;;5010911;28;19953;-79
2022/05/31 14:16:18;;;;;;;;;;;15.80;99.90;;;;;;4994349;28;19914;-77
2022/05/31 14:18:52;;;;;;;;;;;15.80;99.90;;;;;;5010504;28;20252;-78
2022/05/31 14:21:19;;;;;;;;;;;15.80;99.90;;;;;;4993150;28;19921;-78
2022/05/31 14:23:45;;;;;;;;;;;15.70;99.90;;;;;;5012063;28;19922;-77
2022/05/31 14:26:10;;;;;;;;;;;15.80;99.90;;;;;;5009073;28;19936;-76
2022/05/31 14:28:36;;;;;;;;;;;15.80;99.90;;;;;;5011210;28;20502;-77
2022/05/31 14:31:04;;;;;;;;;;;15.90;99.90;;;;;;4992544;28;21596;-78
2022/05/31 14:33:33;;;;;;;;;;;16.00;99.90;;;;;;5008052;28;20419;-76
2022/05/31 14:36:00;;;;;;;;;;;16.00;99.90;;;;;;5008692;28;19974;-78
2022/05/31 14:38:28;;;;;;;;;;;16.20;99.90;;;;;;5009159;28;19921;-78
2022/05/31 14:41:09;;;;;;;;;;;16.30;99.90;;;;;;5009623;28;19922;-78
2022/05/31 14:43:36;;;;;;;;;;;16.40;99.90;;;;;;5008654;28;19922;-78
2022/05/31 14:46:03;;;;;;;;;;;16.30;99.90;;;;;;5018110;28;20327;-80
2022/05/31 14:48:35;;;;;;;;;;;16.10;99.90;;;;;;5044210;28;19921;-81
2022/05/31 14:51:09;;;;;;;;;;;15.70;99.90;;;;;;5045774;28;19948;-79
2022/05/31 14:53:37;;;;;;;;;;;15.30;99.90;;;;;;5047773;28;20304;-80
2022/05/31 14:56:03;;;;;;;;;;;15.00;99.90;;;;;;5046295;28;20139;-79
2022/05/31 14:58:37;;;;;;;;;;;14.80;99.90;;;;;;5045513;28;19917;-79
2022/05/31 15:01:22;;;;;;;;;;;14.60;99.90;;;;;;5047073;28;20360;-77
2022/05/31 15:03:56;;;;;;;;;;;14.40;99.90;;;;;;5045944;28;20039;-79
2022/05/31 15:06:26;;;;;;;;;;;14.30;99.90;;;;;;5049592;28;19913;-77
2022/05/31 15:09:06;;;;;;;;;;;14.20;99.90;;;;;;5045842;28;20254;-78